Time,TemperatureF,DewpointF,PressureIn,WindDirection,WindDirectionDegrees,WindSpeedMPH,WindSpeedGustMPH,Humidity,HourlyPrecipIn,Conditions,Clouds,dailyrainin,SoftwareType,DateUTC
2013-05-08 00:00:00,52.6,48.0,29.51,SE,132,1.0,5.0,84,0.00,,,0.00,weatherlink.com 1.10,2013-05-07 23:00:00,
2013-05-08 00:15:00,52.4,48.0,29.50,ESE,113,2.0,3.0,85,0.00,,,0.00,weatherlink.com 1.10,2013-05-07 23:15:00,
2013-05-08 00:30:00,52.4,48.0,29.49,ESE,107,2.0,3.0,86,0.00,,,0.00,weatherlink.com 1.10,2013-05-07 23:30:00,
2013-05-08 00:45:00,52.3,48.0,29.48,East,95,2.0,3.0,86,0.01,,,0.01,weatherlink.com 1.10,2013-05-07 23:45:00,
2013-05-08 01:00:00,52.8,49.0,29.47,East,86,1.0,5.0,86,0.02,,,0.02,weatherlink.com 1.10,2013-05-08 00:00:00,
2013-05-08 01:15:00,53.3,49.0,29.45,East,99,4.0,7.0,86,0.03,,,0.03,weatherlink.com 1.10,2013-05-08 00:15:00,
2013-05-08 01:30:00,53.3,50.0,29.44,East,80,5.0,8.0,88,0.05,,,0.05,weatherlink.com 1.10,2013-05-08 00:30:00,
2013-05-08 01:45:00,53.4,50.0,29.42,ESE,103,6.0,11.0,89,0.06,,,0.07,weatherlink.com 1.10,2013-05-08 00:45:00,
2013-05-08 02:00:00,53.0,50.0,29.41,SE,129,3.0,11.0,89,0.07,,,0.09,weatherlink.com 1.10,2013-05-08 01:00:00,
2013-05-08 02:15:00,53.0,50.0,29.40,SE,145,3.0,8.0,89,0.06,,,0.09,weatherlink.com 1.10,2013-05-08 01:15:00,
2013-05-08 02:30:00,53.1,49.0,29.39,NE,41,1.0,9.0,87,0.06,,,0.11,weatherlink.com 1.10,2013-05-08 01:30:00,
2013-05-08 02:45:00,53.2,50.0,29.38,SE,129,6.0,17.0,87,0.06,,,0.02,weatherlink.com 1.10,2013-05-08 01:45:00,
2013-05-08 03:00:00,52.7,49.0,29.37,East,96,11.0,17.0,87,0.08,,,0.06,weatherlink.com 1.10,2013-05-08 02:00:00,
2013-05-08 03:15:00,52.3,49.0,29.35,East,99,6.0,11.0,89,0.09,,,0.09,weatherlink.com 1.10,2013-05-08 02:15:00,
2013-05-08 03:31:00,51.9,49.0,29.35,ESE,116,6.0,14.0,89,0.13,,,0.13,weatherlink.com 1.10,2013-05-08 02:31:00,
2013-05-08 03:46:00,51.5,49.0,29.34,SE,141,5.0,14.0,90,0.17,,,0.20,weatherlink.com 1.10,2013-05-08 02:46:00,
2013-05-08 04:01:00,50.9,49.0,29.32,East,79,5.0,13.0,92,0.20,,,0.25,weatherlink.com 1.10,2013-05-08 03:01:00,
2013-05-08 04:16:00,50.5,48.0,29.31,East,91,11.0,12.0,92,0.23,,,0.31,weatherlink.com 1.10,2013-05-08 03:16:00,
2013-05-08 04:31:00,50.4,49.0,29.31,ESE,115,5.0,17.0,93,0.23,,,0.36,weatherlink.com 1.10,2013-05-08 03:31:00,
2013-05-08 04:46:00,50.1,48.0,29.29,ESE,103,6.0,12.0,93,0.20,,,0.40,weatherlink.com 1.10,2013-05-08 03:46:00,
2013-05-08 05:01:00,50.1,48.0,29.28,SE,124,10.0,16.0,93,0.17,,,0.43,weatherlink.com 1.10,2013-05-08 04:01:00,
2013-05-08 05:16:00,50.3,49.0,29.26,ESE,103,6.0,17.0,94,0.13,,,0.45,weatherlink.com 1.10,2013-05-08 04:16:00,
2013-05-08 05:31:00,50.2,49.0,29.26,SSW,205,7.0,16.0,94,0.09,,,0.46,weatherlink.com 1.10,2013-05-08 04:31:00,
2013-05-08 05:46:00,50.3,49.0,29.24,ESE,110,10.0,15.0,94,0.06,,,0.47,weatherlink.com 1.10,2013-05-08 04:46:00,
2013-05-08 06:01:00,50.7,49.0,29.23,East,98,9.0,20.0,95,0.06,,,0.49,weatherlink.com 1.10,2013-05-08 05:01:00,
2013-05-08 06:16:00,50.8,50.0,29.23,East,99,10.0,16.0,95,0.05,,,0.50,weatherlink.com 1.10,2013-05-08 05:16:00,
2013-05-08 06:31:00,50.9,50.0,29.21,ESE,112,6.0,15.0,95,0.06,,,0.51,weatherlink.com 1.10,2013-05-08 05:31:00,
2013-05-08 06:46:00,51.2,50.0,29.19,ESE,118,7.0,20.0,95,0.05,,,0.52,weatherlink.com 1.10,2013-05-08 05:46:00,
2013-05-08 07:01:00,51.4,50.0,29.18,WNW,295,4.0,10.0,95,0.03,,,0.52,weatherlink.com 1.10,2013-05-08 06:01:00,
2013-05-08 07:16:00,51.3,50.0,29.19,ESE,110,8.0,13.0,95,0.02,,,0.52,weatherlink.com 1.10,2013-05-08 06:16:00,
2013-05-08 07:31:00,51.1,50.0,29.19,SE,134,2.0,10.0,95,0.01,,,0.52,weatherlink.com 1.10,2013-05-08 06:31:00,
2013-05-08 07:46:00,50.9,50.0,29.18,SE,136,3.0,11.0,95,0.01,,,0.53,weatherlink.com 1.10,2013-05-08 06:46:00,
2013-05-08 08:01:00,50.7,49.0,29.17,ESE,115,6.0,12.0,95,0.01,,,0.53,weatherlink.com 1.10,2013-05-08 07:01:00,
2013-05-08 08:16:00,50.9,50.0,29.15,SE,146,5.0,11.0,95,0.01,,,0.53,weatherlink.com 1.10,2013-05-08 07:16:00,
2013-05-08 08:31:00,51.7,50.0,29.14,East,100,1.0,12.0,95,0.01,,,0.53,weatherlink.com 1.10,2013-05-08 07:31:00,
2013-05-08 08:46:00,51.4,50.0,29.13,ESE,116,8.0,11.0,94,0.00,,,0.53,weatherlink.com 1.10,2013-05-08 07:46:00,
2013-05-08 09:01:00,51.7,50.0,29.13,WSW,245,1.0,9.0,94,0.00,,,0.53,weatherlink.com 1.10,2013-05-08 08:01:00,
2013-05-08 09:17:00,52.3,51.0,29.13,SW,231,0.0,3.0,94,0.00,,,0.53,weatherlink.com 1.10,2013-05-08 08:17:00,
2013-05-08 09:32:00,52.8,51.0,29.14,WNW,283,2.0,3.0,93,0.00,,,0.53,weatherlink.com 1.10,2013-05-08 08:32:00,
2013-05-08 09:47:00,53.6,51.0,29.14,WSW,256,2.0,8.0,92,0.00,,,0.53,weatherlink.com 1.10,2013-05-08 08:47:00,
2013-05-08 10:02:00,54.4,52.0,29.14,West,274,5.0,7.0,91,0.00,,,0.53,weatherlink.com 1.10,2013-05-08 09:02:00,
2013-05-08 10:17:00,54.9,52.0,29.15,WSW,239,8.0,18.0,91,0.00,,,0.53,weatherlink.com 1.10,2013-05-08 09:17:00,
2013-05-08 10:32:00,54.8,52.0,29.16,West,273,10.0,17.0,91,0.00,,,0.53,weatherlink.com 1.10,2013-05-08 09:32:00,
2013-05-08 10:47:00,54.6,52.0,29.17,SW,222,11.0,13.0,90,0.00,,,0.53,weatherlink.com 1.10,2013-05-08 09:47:00,
2013-05-08 11:02:00,54.3,52.0,29.19,West,264,11.0,15.0,91,0.00,,,0.53,weatherlink.com 1.10,2013-05-08 10:02:00,
2013-05-08 11:17:00,54.8,52.0,29.20,WSW,239,2.0,17.0,89,0.01,,,0.54,weatherlink.com 1.10,2013-05-08 10:17:00,
2013-05-08 11:32:00,55.3,51.0,29.20,WSW,253,7.0,16.0,86,0.01,,,0.54,weatherlink.com 1.10,2013-05-08 10:32:00,
2013-05-08 11:47:00,56.0,52.0,29.21,WSW,252,6.0,15.0,86,0.01,,,0.54,weatherlink.com 1.10,2013-05-08 10:47:00,
2013-05-08 12:02:00,55.5,51.0,29.22,West,263,6.0,13.0,86,0.00,,,0.54,weatherlink.com 1.10,2013-05-08 11:02:00,
2013-05-08 12:17:00,54.6,51.0,29.22,WNW,283,4.0,20.0,86,0.00,,,0.54,weatherlink.com 1.10,2013-05-08 11:17:00,
2013-05-08 12:32:00,55.5,51.0,29.23,WSW,239,6.0,9.0,84,0.00,,,0.54,weatherlink.com 1.10,2013-05-08 11:32:00,
2013-05-08 12:47:00,55.5,50.0,29.23,WSW,242,8.0,11.0,83,0.00,,,0.54,weatherlink.com 1.10,2013-05-08 11:47:00,
2013-05-08 13:02:00,56.1,50.0,29.23,SW,232,7.0,11.0,81,0.00,,,0.54,weatherlink.com 1.10,2013-05-08 12:02:00,
2013-05-08 13:17:00,56.3,51.0,29.24,WSW,250,3.0,14.0,81,0.00,,,0.54,weatherlink.com 1.10,2013-05-08 12:17:00,
2013-05-08 13:32:00,56.8,50.0,29.24,WSW,243,6.0,14.0,79,0.00,,,0.54,weatherlink.com 1.10,2013-05-08 12:32:00,
2013-05-08 13:47:00,58.1,50.0,29.23,WSW,257,4.0,13.0,75,0.00,,,0.54,weatherlink.com 1.10,2013-05-08 12:47:00,
2013-05-08 14:02:00,59.5,50.0,29.23,WSW,248,6.0,17.0,71,0.00,,,0.54,weatherlink.com 1.10,2013-05-08 13:02:00,
2013-05-08 14:17:00,60.3,50.0,29.23,West,278,3.0,15.0,69,0.00,,,0.54,weatherlink.com 1.10,2013-05-08 13:17:00,
2013-05-08 14:32:00,61.8,50.0,29.23,WSW,249,6.0,12.0,65,0.00,,,0.54,weatherlink.com 1.10,2013-05-08 13:32:00,
2013-05-08 14:47:00,61.6,48.0,29.22,SSW,211,4.0,18.0,61,0.00,,,0.54,weatherlink.com 1.10,2013-05-08 13:47:00,
2013-05-08 15:02:00,62.1,48.0,29.23,WSW,240,7.0,16.0,61,0.00,,,0.54,weatherlink.com 1.10,2013-05-08 14:02:00,
2013-05-08 15:17:00,61.3,46.0,29.23,WSW,242,11.0,25.0,57,0.01,,,0.54,weatherlink.com 1.10,2013-05-08 14:17:00,
2013-05-08 15:32:00,61.0,46.0,29.23,SW,221,11.0,25.0,59,0.01,,,0.54,weatherlink.com 1.10,2013-05-08 14:32:00,
2013-05-08 15:47:00,61.5,47.0,29.22,WSW,242,4.0,15.0,60,0.01,,,0.54,weatherlink.com 1.10,2013-05-08 14:47:00,
2013-05-08 16:02:00,61.6,46.0,29.22,SW,231,7.0,18.0,58,0.01,,,0.54,weatherlink.com 1.10,2013-05-08 15:02:00,
2013-05-08 16:17:00,57.3,46.0,29.24,West,281,3.0,24.0,66,0.00,,,0.54,weatherlink.com 1.10,2013-05-08 15:17:00,
2013-05-08 16:33:00,56.9,44.0,29.24,West,260,8.0,20.0,62,0.00,,,0.54,weatherlink.com 1.10,2013-05-08 15:33:00,
2013-05-08 16:48:00,57.1,45.0,29.27,SSE,159,13.0,21.0,65,0.00,,,0.54,weatherlink.com 1.10,2013-05-08 15:48:00,
2013-05-08 17:03:00,51.7,45.0,29.27,WSW,243,2.0,23.0,77,0.03,,,0.57,weatherlink.com 1.10,2013-05-08 16:03:00,
2013-05-08 17:18:00,52.9,46.0,29.26,SW,236,4.0,23.0,76,0.04,,,0.58,weatherlink.com 1.10,2013-05-08 16:18:00,
2013-05-08 17:33:00,54.7,45.0,29.27,SW,228,5.0,23.0,71,0.05,,,0.59,weatherlink.com 1.10,2013-05-08 16:33:00,
2013-05-08 17:48:00,55.5,45.0,29.27,SW,215,3.0,16.0,69,0.05,,,0.59,weatherlink.com 1.10,2013-05-08 16:48:00,
2013-05-08 18:03:00,54.5,44.0,29.27,West,259,4.0,17.0,68,0.02,,,0.59,weatherlink.com 1.10,2013-05-08 17:03:00,
2013-05-08 18:18:00,52.7,44.0,29.28,WSW,247,5.0,17.0,72,0.01,,,0.59,weatherlink.com 1.10,2013-05-08 17:18:00,
2013-05-08 18:33:00,51.8,46.0,29.28,WNW,284,8.0,16.0,80,0.01,,,0.60,weatherlink.com 1.10,2013-05-08 17:33:00,
2013-05-08 18:48:00,52.2,45.0,29.30,SW,235,4.0,14.0,77,0.01,,,0.60,weatherlink.com 1.10,2013-05-08 17:48:00,
2013-05-08 19:03:00,50.8,44.0,29.30,West,273,9.0,15.0,76,0.01,,,0.60,weatherlink.com 1.10,2013-05-08 18:03:00,
2013-05-08 19:18:00,51.2,44.0,29.30,WSW,238,10.0,15.0,75,0.01,,,0.60,weatherlink.com 1.10,2013-05-08 18:18:00,
2013-05-08 19:33:00,51.5,43.0,29.30,WSW,250,4.0,17.0,74,0.00,,,0.60,weatherlink.com 1.10,2013-05-08 18:33:00,
2013-05-08 19:48:00,50.8,43.0,29.31,West,278,3.0,19.0,75,0.00,,,0.60,weatherlink.com 1.10,2013-05-08 18:48:00,
2013-05-08 20:03:00,50.4,42.0,29.32,WSW,243,12.0,17.0,74,0.00,,,0.60,weatherlink.com 1.10,2013-05-08 19:03:00,
2013-05-08 20:18:00,49.7,41.0,29.32,WNW,290,3.0,16.0,72,0.00,,,0.60,weatherlink.com 1.10,2013-05-08 19:18:00,
2013-05-08 20:33:00,49.5,40.0,29.32,West,262,10.0,17.0,71,0.00,,,0.60,weatherlink.com 1.10,2013-05-08 19:33:00,
2013-05-08 20:48:00,48.9,41.0,29.32,West,260,3.0,13.0,74,0.00,,,0.60,weatherlink.com 1.10,2013-05-08 19:48:00,
2013-05-08 21:03:00,48.6,42.0,29.33,SW,218,5.0,13.0,77,0.00,,,0.60,weatherlink.com 1.10,2013-05-08 20:03:00,
2013-05-08 21:18:00,48.6,41.0,29.34,West,266,6.0,16.0,76,0.00,,,0.60,weatherlink.com 1.10,2013-05-08 20:18:00,
2013-05-08 21:33:00,48.7,41.0,29.34,WSW,239,9.0,12.0,74,0.00,,,0.60,weatherlink.com 1.10,2013-05-08 20:33:00,
2013-05-08 21:48:00,48.6,40.0,29.34,WSW,258,8.0,20.0,73,0.00,,,0.60,weatherlink.com 1.10,2013-05-08 20:48:00,
2013-05-08 22:03:00,48.2,40.0,29.35,WSW,248,5.0,13.0,73,0.00,,,0.60,weatherlink.com 1.10,2013-05-08 21:03:00,
2013-05-08 22:18:00,48.0,40.0,29.35,West,280,3.0,16.0,73,0.00,,,0.60,weatherlink.com 1.10,2013-05-08 21:18:00,
2013-05-08 22:33:00,47.8,39.0,29.35,SSW,212,3.0,15.0,72,0.00,,,0.60,weatherlink.com 1.10,2013-05-08 21:33:00,
2013-05-08 22:48:00,47.8,40.0,29.35,West,280,3.0,15.0,73,0.00,,,0.60,weatherlink.com 1.10,2013-05-08 21:48:00,
2013-05-08 23:03:00,47.8,40.0,29.35,NW,312,7.0,16.0,73,0.00,,,0.60,weatherlink.com 1.10,2013-05-08 22:03:00,
2013-05-08 23:18:00,47.8,39.0,29.34,SW,229,6.0,16.0,72,0.00,,,0.60,weatherlink.com 1.10,2013-05-08 22:18:00,
2013-05-08 23:33:00,47.5,39.0,29.34,SSW,207,7.0,17.0,71,0.00,,,0.60,weatherlink.com 1.10,2013-05-08 22:33:00,
2013-05-08 23:48:00,47.3,38.0,29.34,West,274,11.0,17.0,71,0.00,,,0.60,weatherlink.com 1.10,2013-05-08 22:48:00,